Time;durP1;ratioP1;P1;durP2;ratioP2;P2;SDS_P1;SDS_P2;PMS_P1;PMS_P2;Temp;Humidity;BMP_temperature;BMP_pressure;BME280_temperature;BME280_humidity;BME280_pressure;Samples;Min_cycle;Max_cycle;Signal;HPM_P1;HPM_P2
2022/08/25 00:02:49;;;;;;;5.20;4.70;;;24.30;93.80;;;;;;10412312;28;20044;-63
2022/08/25 00:07:49;;;;;;;4.82;4.43;;;24.20;93.70;;;;;;10415541;28;20029;-63
2022/08/25 00:12:51;;;;;;;5.20;4.70;;;24.20;93.70;;;;;;10426137;28;20043;-63
2022/08/25 00:17:51;;;;;;;5.05;4.55;;;24.20;93.70;;;;;;10415668;28;20033;-62
2022/08/25 00:22:52;;;;;;;5.55;4.97;;;24.20;93.70;;;;;;10415574;28;20028;-62
2022/08/25 00:27:53;;;;;;;5.40;4.90;;;24.20;93.70;;;;;;10418923;28;20033;-62
2022/08/25 00:32:54;;;;;;;5.30;4.82;;;24.20;93.60;;;;;;10426395;28;20300;-62
2022/08/25 00:37:55;;;;;;;5.18;4.68;;;24.10;93.60;;;;;;10436850;28;20048;-62
2022/08/25 00:42:55;;;;;;;5.93;5.00;;;24.10;93.50;;;;;;10420190;28;20031;-62
2022/08/25 00:47:56;;;;;;;5.18;4.70;;;24.10;93.50;;;;;;10441726;28;20541;-62
2022/08/25 00:53:01;;;;;;;7.00;4.93;;;24.10;93.50;;;;;;10443989;28;20033;-63
2022/08/25 00:58:14;;;;;;;7.22;4.88;;;24.10;93.40;;;;;;10440209;28;20028;-62
2022/08/25 01:03:18;;;;;;;4.93;4.47;;;24.00;93.40;;;;;;10438183;28;20519;-63
2022/08/25 01:08:22;;;;;;;5.25;4.80;;;24.00;93.30;;;;;;10432362;28;20045;-63
2022/08/25 01:13:30;;;;;;;5.93;4.25;;;24.00;93.30;;;;;;10445755;28;20028;-62
2022/08/25 01:18:51;;;;;;;;;;;24.00;93.30;;;;;;10438134;28;20032;-62
2022/08/25 01:23:51;;;;;;;5.13;4.63;;;23.90;93.20;;;;;;10442959;28;19916;-63
2022/08/25 01:34:12;;;;;;;4.80;4.25;;;23.90;93.30;;;;;;10440406;28;20024;-63
2022/08/25 01:39:14;;;;;;;5.43;4.93;;;23.90;93.30;;;;;;10449650;28;20072;-62
2022/08/25 01:44:16;;;;;;;5.32;4.40;;;23.80;93.20;;;;;;10442125;28;20102;-62
2022/08/25 01:49:16;;;;;;;4.60;4.20;;;23.80;93.10;;;;;;10446839;28;20071;-63
2022/08/25 01:54:18;;;;;;;4.15;3.75;;;23.80;93.10;;;;;;10439403;28;20051;-63
2022/08/25 01:59:20;;;;;;;4.70;3.97;;;23.70;93.00;;;;;;10438874;28;20029;-63
2022/08/25 02:04:21;;;;;;;4.85;4.45;;;23.70;92.90;;;;;;10443451;28;20032;-62
2022/08/25 02:09:23;;;;;;;4.35;3.95;;;23.70;92.90;;;;;;10442977;28;20036;-62
2022/08/25 02:14:24;;;;;;;5.65;4.10;;;23.70;92.80;;;;;;10432972;28;20043;-63
2022/08/25 02:19:25;;;;;;;4.63;4.22;;;23.60;92.80;;;;;;10442240;28;20104;-62
2022/08/25 02:24:26;;;;;;;4.57;4.10;;;23.60;92.70;;;;;;10440070;28;20035;-63
2022/08/25 02:29:27;;;;;;;5.05;4.18;;;23.60;92.70;;;;;;10442526;28;20625;-62
2022/08/25 02:34:27;;;;;;;4.95;3.92;;;23.60;92.60;;;;;;10438050;28;20021;-62
2022/08/25 02:39:28;;;;;;;4.70;4.18;;;23.60;92.60;;;;;;10417897;28;20055;-62
2022/08/25 02:44:30;;;;;;;4.40;3.75;;;23.50;92.50;;;;;;10399909;28;20033;-63
2022/08/25 02:49:31;;;;;;;5.53;4.25;;;23.50;92.50;;;;;;10403402;28;20470;-63
2022/08/25 02:54:32;;;;;;;5.50;4.38;;;23.50;92.40;;;;;;10398945;28;20025;-63
2022/08/25 02:59:34;;;;;;;4.90;4.00;;;23.50;92.40;;;;;;10397113;28;20046;-62
2022/08/25 03:04:35;;;;;;;4.32;3.90;;;23.50;92.30;;;;;;10401997;28;20208;-63
2022/08/25 03:09:36;;;;;;;5.82;3.60;;;23.40;92.30;;;;;;10401971;28;20040;-62
2022/08/25 03:14:39;;;;;;;3.83;3.53;;;23.40;92.20;;;;;;10405017;28;20034;-62
2022/08/25 03:19:39;;;;;;;4.10;3.67;;;23.30;92.40;;;;;;10398853;28;20320;-62
2022/08/25 03:24:40;;;;;;;3.83;3.42;;;23.30;92.10;;;;;;10396475;28;20026;-62
2022/08/25 03:29:42;;;;;;;4.07;3.33;;;23.30;92.10;;;;;;10386359;28;20038;-62
2022/08/25 03:34:42;;;;;;;4.55;3.97;;;23.30;92.10;;;;;;10402658;28;20061;-63
2022/08/25 03:39:43;;;;;;;4.47;4.07;;;23.30;92.00;;;;;;10394041;28;20144;-62
2022/08/25 03:44:44;;;;;;;5.75;3.97;;;23.20;92.00;;;;;;10388411;28;20029;-63
2022/08/25 03:49:45;;;;;;;3.97;3.60;;;23.20;91.90;;;;;;10389828;28;20064;-63
2022/08/25 03:54:46;;;;;;;4.20;3.10;;;23.20;91.90;;;;;;10389651;28;20033;-63
2022/08/25 03:59:46;;;;;;;4.00;3.58;;;23.20;91.80;;;;;;10388708;28;20052;-62
2022/08/25 04:04:47;;;;;;;4.55;3.33;;;23.10;91.80;;;;;;10386639;28;20029;-63
2022/08/25 04:09:48;;;;;;;4.43;3.20;;;23.10;91.80;;;;;;10390231;28;20053;-63
2022/08/25 04:14:49;;;;;;;4.35;3.30;;;23.10;91.70;;;;;;10393871;28;20021;-62
2022/08/25 04:19:50;;;;;;;3.85;3.45;;;23.10;91.70;;;;;;10398061;28;20490;-63
2022/08/25 04:24:51;;;;;;;3.60;3.13;;;23.00;91.60;;;;;;10394806;28;20025;-63
2022/08/25 04:29:52;;;;;;;4.43;3.25;;;23.00;91.60;;;;;;10396387;28;20037;-63
2022/08/25 04:34:52;;;;;;;6.25;3.17;;;23.00;91.50;;;;;;10397475;28;20425;-62
2022/08/25 04:39:53;;;;;;;4.90;3.20;;;23.00;91.50;;;;;;10400953;28;20052;-63
2022/08/25 04:44:54;;;;;;;3.92;2.85;;;23.00;91.40;;;;;;10416450;28;20381;-63
2022/08/25 04:49:55;;;;;;;3.72;3.15;;;22.90;91.40;;;;;;10409159;28;20102;-67
2022/08/25 04:54:56;;;;;;;3.72;3.22;;;23.00;91.40;;;;;;10412246;28;20022;-66
2022/08/25 04:59:56;;;;;;;6.60;3.60;;;22.90;91.30;;;;;;10369866;28;20038;-65
2022/08/25 05:04:57;;;;;;;5.55;3.80;;;22.90;91.10;;;;;;10334288;28;20097;-65
2022/08/25 05:09:58;;;;;;;6.10;4.20;;;22.70;90.60;;;;;;10411772;28;20448;-64
2022/08/25 05:15:48;;;;;;;5.47;4.18;;;22.40;90.30;;;;;;10417268;28;20470;-64
2022/08/25 05:20:19;;;;;;;6.85;4.65;;;22.20;90.30;;;;;;10409445;28;20040;-64
2022/08/25 05:25:20;;;;;;;6.82;3.65;;;22.00;90.30;;;;;;10392504;28;20040;-63
2022/08/25 05:30:21;;;;;;;4.90;3.95;;;21.90;90.20;;;;;;10423089;28;20044;-63
2022/08/25 05:35:22;;;;;;;5.47;3.65;;;21.80;90.20;;;;;;10416263;28;20029;-63
2022/08/25 05:40:23;;;;;;;8.00;4.13;;;21.70;90.20;;;;;;10436635;28;20044;-63
2022/08/25 05:45:24;;;;;;;9.45;5.07;;;21.60;90.20;;;;;;10445564;28;20481;-63
2022/08/25 05:50:26;;;;;;;6.07;4.05;;;21.60;90.20;;;;;;10437561;28;20041;-63
2022/08/25 05:55:27;;;;;;;6.68;4.00;;;21.60;90.20;;;;;;10445737;28;20021;-64
2022/08/25 06:00:27;;;;;;;6.03;3.90;;;21.60;90.20;;;;;;10414569;28;20037;-63
2022/08/25 06:05:28;;;;;;;7.60;4.03;;;21.50;90.20;;;;;;10425163;28;20025;-63
2022/08/25 06:10:29;;;;;;;4.13;3.72;;;21.60;90.30;;;;;;10442490;28;20037;-62
2022/08/25 06:15:30;;;;;;;5.25;3.60;;;21.60;90.30;;;;;;10440919;28;20059;-63
2022/08/25 06:20:31;;;;;;;8.00;4.15;;;21.60;90.30;;;;;;10446299;28;20040;-63
2022/08/25 06:25:32;;;;;;;7.78;4.10;;;21.60;90.20;;;;;;10431233;28;20542;-62
2022/08/25 06:30:33;;;;;;;5.50;3.90;;;21.50;90.20;;;;;;10438955;28;20041;-64
2022/08/25 06:35:33;;;;;;;6.75;3.90;;;21.50;90.20;;;;;;10443862;28;20055;-62
2022/08/25 06:40:34;;;;;;;5.45;3.70;;;21.60;90.20;;;;;;10447805;28;20057;-62
2022/08/25 06:45:35;;;;;;;10.75;4.47;;;21.60;90.20;;;;;;10446223;28;20044;-63
2022/08/25 06:50:40;;;;;;;5.90;3.78;;;21.70;90.20;;;;;;10439195;28;20044;-63
2022/08/25 06:55:41;;;;;;;6.45;4.35;;;21.70;90.20;;;;;;10446206;28;20024;-63
2022/08/25 07:00:43;;;;;;;9.00;4.60;;;21.70;90.20;;;;;;10439452;28;20039;-63
2022/08/25 07:05:55;;;;;;;8.82;4.72;;;21.80;90.20;;;;;;10433016;28;20115;-63
2022/08/25 07:10:57;;;;;;;6.05;3.67;;;21.90;90.60;;;;;;10440608;28;20141;-63
2022/08/25 07:15:57;;;;;;;7.40;4.82;;;21.90;90.30;;;;;;10437920;28;20016;-63
2022/08/25 07:20:58;;;;;;;7.88;4.90;;;22.00;90.20;;;;;;10438327;28;20393;-62
2022/08/25 07:26:11;;;;;;;6.15;4.07;;;22.10;90.30;;;;;;10436627;28;20113;-62
2022/08/25 07:31:12;;;;;;;6.05;4.25;;;22.10;90.50;;;;;;10442614;28;20036;-63
2022/08/25 07:36:12;;;;;;;6.70;4.80;;;22.20;90.40;;;;;;10440952;28;20024;-63
2022/08/25 07:41:13;;;;;;;7.53;4.20;;;22.30;90.40;;;;;;10445690;28;20045;-63
2022/08/25 07:46:14;;;;;;;6.03;3.75;;;22.30;90.40;;;;;;10447942;28;20029;-63
2022/08/25 07:51:16;;;;;;;6.82;4.18;;;22.40;90.40;;;;;;10441234;28;20065;-62
2022/08/25 07:56:18;;;;;;;6.43;4.28;;;22.50;90.40;;;;;;10445454;28;20025;-62
2022/08/25 08:01:21;;;;;;;7.82;4.50;;;22.60;90.50;;;;;;10450296;28;20381;-63
2022/08/25 08:06:23;;;;;;;6.07;3.92;;;22.70;90.40;;;;;;10444640;28;20076;-61
2022/08/25 08:11:29;;;;;;;5.22;3.95;;;22.80;90.40;;;;;;10446441;28;20094;-63
2022/08/25 08:16:31;;;;;;;8.00;4.28;;;22.90;90.30;;;;;;10448946;28;20033;-63
2022/08/25 08:21:34;;;;;;;4.65;3.42;;;23.00;90.30;;;;;;10452924;28;20025;-62
2022/08/25 08:26:35;;;;;;;4.45;3.67;;;23.00;90.30;;;;;;10433301;28;20040;-63
2022/08/25 08:31:36;;;;;;;7.53;4.00;;;23.10;90.30;;;;;;10440769;28;20041;-63
2022/08/25 08:36:36;;;;;;;5.05;4.03;;;23.10;90.30;;;;;;10449241;28;20036;-62
2022/08/25 08:47:10;;;;;;;3.90;3.30;;;23.10;90.30;;;;;;10442604;28;20028;-63
2022/08/25 08:52:14;;;;;;;7.43;3.85;;;23.20;90.20;;;;;;10454575;28;20132;-62
2022/08/25 08:57:19;;;;;;;4.80;3.50;;;23.30;90.20;;;;;;10447598;28;20025;-63
2022/08/25 09:02:34;;;;;;;4.00;3.58;;;23.30;90.20;;;;;;10440529;28;20025;-63
2022/08/25 09:07:40;;;;;;;4.30;3.63;;;23.40;90.20;;;;;;10442823;28;20029;-63
2022/08/25 09:12:49;;;;;;;5.20;3.22;;;23.40;90.10;;;;;;10443623;28;20501;-62
2022/08/25 09:18:17;;;;;;;3.78;3.47;;;23.50;90.10;;;;;;10448553;28;20527;-63
2022/08/25 09:23:38;;;;;;;4.32;3.53;;;23.50;90.10;;;;;;10440784;28;20032;-62
2022/08/25 09:28:41;;;;;;;4.82;3.35;;;23.60;90.10;;;;;;10442476;28;20041;-63
2022/08/25 09:33:42;;;;;;;4.85;3.20;;;23.60;90.00;;;;;;10438559;28;20056;-63
2022/08/25 09:38:43;;;;;;;4.28;3.10;;;23.70;90.00;;;;;;10444427;28;20139;-63
2022/08/25 09:43:52;;;;;;;4.35;3.40;;;23.70;89.90;;;;;;10443484;28;20025;-62
2022/08/25 09:48:55;;;;;;;4.50;3.10;;;23.80;89.70;;;;;;10438430;28;20128;-63
2022/08/25 09:54:12;;;;;;;4.65;3.20;;;23.90;89.60;;;;;;10444226;28;20052;-62
2022/08/25 09:59:31;;;;;;;4.30;3.17;;;23.90;89.40;;;;;;10433589;28;20119;-62
2022/08/25 10:04:37;;;;;;;3.55;3.00;;;24.00;89.10;;;;;;10431787;28;20069;-62
2022/08/25 10:09:49;;;;;;;3.42;3.10;;;24.00;89.10;;;;;;10436327;28;20041;-61
2022/08/25 10:14:50;;;;;;;4.30;2.85;;;24.10;89.10;;;;;;10439613;28;20474;-61
2022/08/25 10:19:54;;;;;;;3.05;2.75;;;24.20;88.80;;;;;;10434987;28;20449;-64
2022/08/25 10:24:55;;;;;;;6.35;3.05;;;24.30;88.60;;;;;;10435813;28;20548;-63
2022/08/25 10:30:18;;;;;;;5.35;3.15;;;24.30;88.30;;;;;;10436349;28;20033;-63
2022/08/25 10:35:51;;;;;;;3.85;2.80;;;24.40;88.00;;;;;;10433820;28;20460;-64
2022/08/25 10:41:05;;;;;;;3.88;2.70;;;24.50;87.80;;;;;;10438322;28;20037;-63
2022/08/25 10:46:33;;;;;;;3.67;2.75;;;24.50;87.50;;;;;;10414843;28;20497;-63
2022/08/25 10:51:41;;;;;;;4.28;2.72;;;24.60;87.20;;;;;;10441891;28;20051;-62
2022/08/25 10:57:10;;;;;;;5.82;2.88;;;24.70;86.60;;;;;;10438998;28;20376;-62
2022/08/25 11:02:42;;;;;;;6.15;2.60;;;25.50;83.90;;;;;;10388417;28;20132;-62
2022/08/25 11:07:48;;;;;;;4.15;2.60;;;26.20;81.10;;;;;;10434847;28;20162;-63
2022/08/25 11:13:02;;;;;;;3.95;2.60;;;26.60;79.40;;;;;;10430848;28;20128;-63
2022/08/25 11:18:08;;;;;;;6.88;2.40;;;27.00;76.80;;;;;;10434939;28;20025;-63
2022/08/25 11:23:32;;;;;;;3.63;2.70;;;27.10;76.50;;;;;;10429506;28;20588;-63
2022/08/25 11:28:42;;;;;;;3.22;2.30;;;27.10;75.80;;;;;;10435355;28;20052;-64
2022/08/25 11:33:43;;;;;;;2.72;2.30;;;26.90;77.10;;;;;;10435545;28;20040;-64
2022/08/25 11:39:11;;;;;;;3.55;2.53;;;26.60;78.10;;;;;;10411203;28;20052;-63
2022/08/25 11:44:45;;;;;;;5.53;2.42;;;26.50;78.40;;;;;;10388873;28;20035;-63
2022/08/25 11:49:58;;;;;;;2.97;2.67;;;26.30;78.70;;;;;;10390594;28;20049;-64
2022/08/25 11:55:28;;;;;;;3.33;1.95;;;26.30;79.20;;;;;;10389360;28;20076;-63
2022/08/25 12:00:41;;;;;;;3.67;2.45;;;26.20;79.30;;;;;;10390611;28;20038;-63
2022/08/25 12:06:10;;;;;;;5.18;2.47;;;26.20;79.10;;;;;;10390701;28;20282;-62
2022/08/25 12:11:13;;;;;;;3.50;2.25;;;26.20;78.70;;;;;;10389822;28;20041;-63
2022/08/25 12:16:36;;;;;;;3.55;2.10;;;26.30;79.30;;;;;;10389949;28;20393;-63
2022/08/25 12:21:37;;;;;;;3.00;2.35;;;26.30;78.70;;;;;;10389576;28;20260;-62
2022/08/25 12:26:44;;;;;;;3.70;2.53;;;26.40;79.30;;;;;;10390706;28;20046;-62
2022/08/25 12:31:56;;;;;;;2.85;2.30;;;26.40;79.40;;;;;;10394486;28;20025;-62
2022/08/25 12:37:18;;;;;;;3.20;2.38;;;26.40;79.30;;;;;;10399634;28;20063;-62
2022/08/25 12:42:34;;;;;;;3.95;2.20;;;26.40;79.50;;;;;;10436746;28;20394;-62
2022/08/25 12:47:35;;;;;;;4.68;2.35;;;26.40;79.60;;;;;;10437597;28;20056;-62
2022/08/25 12:52:37;;;;;;;3.15;2.03;;;26.50;79.60;;;;;;10439083;28;20469;-62
2022/08/25 12:57:56;;;;;;;3.03;2.30;;;26.60;80.10;;;;;;10418910;28;20641;-62
2022/08/25 13:03:34;;;;;;;3.08;2.00;;;26.60;80.20;;;;;;10434399;28;20108;-62
2022/08/25 13:08:44;;;;;;;2.10;1.83;;;26.60;80.60;;;;;;10437565;28;20033;-63
2022/08/25 13:13:54;;;;;;;2.60;2.10;;;26.70;81.00;;;;;;10436130;28;20033;-62
2022/08/25 13:18:57;;;;;;;2.55;2.28;;;26.70;80.60;;;;;;10435489;28;20309;-63
2022/08/25 13:24:00;;;;;;;3.97;2.20;;;26.70;80.90;;;;;;10436529;28;20037;-62
2022/08/25 13:29:13;;;;;;;3.30;2.17;;;26.80;81.20;;;;;;10437330;28;20037;-62
2022/08/25 13:34:18;;;;;;;2.78;2.30;;;26.90;81.30;;;;;;10438282;28;20025;-62
2022/08/25 13:39:22;;;;;;;3.47;2.05;;;27.00;81.30;;;;;;10437039;28;20052;-62
2022/08/25 13:44:25;;;;;;;4.50;2.55;;;27.10;81.30;;;;;;10435864;28;20056;-63
2022/08/25 13:49:26;;;;;;;4.57;2.83;;;27.60;78.60;;;;;;10437299;28;20120;-62
2022/08/25 13:54:41;;;;;;;4.55;2.85;;;28.50;75.60;;;;;;10433297;28;20349;-63
2022/08/25 13:59:44;;;;;;;4.57;2.90;;;29.10;71.30;;;;;;10436400;28;20048;-62
2022/08/25 14:04:48;;;;;;;4.80;2.78;;;29.50;71.40;;;;;;10434367;28;20463;-63
2022/08/25 14:09:57;;;;;;;3.72;2.90;;;29.70;70.60;;;;;;10437532;28;20039;-63
2022/08/25 14:15:08;;;;;;;4.72;3.10;;;30.00;69.20;;;;;;10434936;28;20025;-62
2022/08/25 14:20:25;;;;;;;3.88;2.80;;;30.20;68.20;;;;;;10432334;28;20028;-63
2022/08/25 14:25:28;;;;;;;6.65;2.83;;;30.40;65.80;;;;;;10437231;28;20047;-62
2022/08/25 14:30:32;;;;;;;4.13;2.42;;;30.40;65.50;;;;;;10433257;28;20132;-63
2022/08/25 14:35:33;;;;;;;5.78;2.92;;;30.50;65.90;;;;;;10434401;28;20021;-63
2022/08/25 14:40:35;;;;;;;5.70;2.72;;;30.70;65.40;;;;;;10434869;28;20055;-62
2022/08/25 14:45:39;;;;;;;4.30;2.65;;;30.80;65.50;;;;;;10430373;28;20358;-63
2022/08/25 14:50:40;;;;;;;3.42;2.55;;;30.90;64.60;;;;;;10428080;28;20102;-63
2022/08/25 14:55:41;;;;;;;3.95;2.80;;;30.90;64.50;;;;;;10431961;28;20276;-62
2022/08/25 15:00:44;;;;;;;4.95;2.60;;;31.00;64.20;;;;;;10415515;28;20041;-62
2022/08/25 15:05:44;;;;;;;7.30;2.80;;;31.00;63.90;;;;;;10434824;28;20025;-63
2022/08/25 15:10:45;;;;;;;5.75;3.03;;;31.10;63.40;;;;;;10432165;28;20033;-63
2022/08/25 15:15:46;;;;;;;3.35;2.60;;;31.10;63.50;;;;;;10432029;28;20075;-63
2022/08/25 15:20:48;;;;;;;4.00;2.83;;;31.10;63.40;;;;;;10433440;28;20057;-62
2022/08/25 15:25:50;;;;;;;4.72;2.70;;;31.10;63.40;;;;;;10431355;28;20032;-62
2022/08/25 15:30:50;;;;;;;3.60;2.72;;;31.10;63.40;;;;;;10430926;28;20033;-62
2022/08/25 15:35:52;;;;;;;3.33;2.90;;;31.20;62.90;;;;;;10431039;28;20029;-62
2022/08/25 15:40:52;;;;;;;5.43;3.33;;;31.10;62.50;;;;;;10431796;28;20472;-63
2022/08/25 15:45:53;;;;;;;4.68;2.70;;;31.10;62.40;;;;;;10433779;28;20021;-63
2022/08/25 15:50:55;;;;;;;3.45;2.60;;;31.10;62.30;;;;;;10433801;28;20162;-62
2022/08/25 15:55:56;;;;;;;8.15;3.38;;;30.90;61.70;;;;;;10431368;28;20017;-62
2022/08/25 16:00:57;;;;;;;3.78;3.03;;;30.60;62.60;;;;;;10431369;28;20032;-62
2022/08/25 16:06:01;;;;;;;4.10;3.03;;;30.40;63.30;;;;;;10432660;28;20040;-62
2022/08/25 16:11:03;;;;;;;3.97;2.60;;;30.20;63.60;;;;;;10439598;28;20033;-62
2022/08/25 16:16:04;;;;;;;11.23;7.05;;;30.00;63.70;;;;;;10435628;28;20025;-62
2022/08/25 16:21:09;;;;;;;18.48;10.88;;;29.80;63.10;;;;;;10435684;28;20477;-62
2022/08/25 16:26:11;;;;;;;4.93;3.90;;;29.60;63.10;;;;;;10438914;28;20629;-63
2022/08/25 16:31:14;;;;;;;7.85;4.05;;;29.40;64.00;;;;;;10436884;28;20029;-63
2022/08/25 16:36:21;;;;;;;6.35;3.60;;;29.30;64.70;;;;;;10437603;28;20037;-63
2022/08/25 16:41:24;;;;;;;4.78;3.05;;;29.20;64.70;;;;;;10436518;28;20037;-63
2022/08/25 16:46:26;;;;;;;4.40;3.20;;;29.10;65.40;;;;;;10434092;28;20028;-63
2022/08/25 16:51:27;;;;;;;6.70;3.40;;;29.00;66.00;;;;;;10438134;28;20040;-63
2022/08/25 16:56:28;;;;;;;4.57;3.47;;;28.90;66.70;;;;;;10360606;28;20222;-63
2022/08/25 17:01:32;;;;;;;3.75;3.00;;;28.80;67.10;;;;;;10354869;28;20453;-63
2022/08/25 17:06:40;;;;;;;4.65;3.30;;;28.70;67.00;;;;;;10348708;28;20525;-63
2022/08/25 17:11:47;;;;;;;4.35;3.22;;;28.70;67.20;;;;;;10359737;28;20152;-63
2022/08/25 17:16:49;;;;;;;8.23;2.97;;;28.60;67.30;;;;;;10361883;28;20593;-62
2022/08/25 17:21:51;;;;;;;4.55;3.22;;;28.50;68.00;;;;;;10334001;28;20051;-63
2022/08/25 17:26:51;;;;;;;8.27;3.88;;;28.40;68.50;;;;;;10352217;28;20103;-65
2022/08/25 17:31:52;;;;;;;9.95;4.13;;;28.30;68.90;;;;;;10356213;28;20453;-62
2022/08/25 17:36:53;;;;;;;18.23;6.07;;;28.20;69.40;;;;;;10352549;28;20441;-61
2022/08/25 17:41:54;;;;;;;10.90;6.43;;;28.10;70.40;;;;;;10350269;28;20552;-62
2022/08/25 17:46:55;;;;;;;8.73;5.55;;;28.00;70.30;;;;;;10356522;28;20536;-62
2022/08/25 17:51:55;;;;;;;16.23;6.93;;;27.90;71.00;;;;;;10358250;28;20033;-62
2022/08/25 17:56:56;;;;;;;13.20;6.45;;;27.70;72.10;;;;;;10357549;28;20036;-62
2022/08/25 18:01:57;;;;;;;10.70;5.97;;;27.70;73.00;;;;;;10357620;28;20590;-62
2022/08/25 18:06:58;;;;;;;11.65;5.32;;;27.60;73.60;;;;;;10353372;28;20303;-62
2022/08/25 18:11:58;;;;;;;9.13;5.00;;;27.50;74.20;;;;;;10353802;28;20025;-62
2022/08/25 18:17:02;;;;;;;7.35;4.18;;;27.40;75.10;;;;;;10355427;28;20033;-62
2022/08/25 18:22:05;;;;;;;5.00;3.92;;;27.30;76.00;;;;;;10355115;28;20555;-63
2022/08/25 18:27:06;;;;;;;5.15;3.70;;;27.20;76.90;;;;;;10355286;28;20102;-63
2022/08/25 18:32:10;;;;;;;5.22;3.83;;;27.10;77.50;;;;;;10350105;28;20262;-68
2022/08/25 18:42:30;;;;;;;7.72;4.50;;;26.80;78.20;;;;;;10354533;28;20087;-63
2022/08/25 18:47:31;;;;;;;6.82;4.40;;;26.70;78.40;;;;;;10336576;28;20144;-63
2022/08/25 18:52:33;;;;;;;18.98;8.25;;;26.60;78.70;;;;;;10345083;28;20037;-64
2022/08/25 18:57:34;;;;;;;22.42;10.60;;;26.50;79.00;;;;;;10346470;28;20575;-63
2022/08/25 19:02:35;;;;;;;20.05;9.88;;;26.40;79.40;;;;;;10348919;28;20108;-63
2022/08/25 19:07:35;;;;;;;20.83;11.02;;;26.30;79.70;;;;;;10401269;28;20052;-63
2022/08/25 19:12:36;;;;;;;14.73;9.85;;;26.20;80.10;;;;;;10433820;28;20044;-62
2022/08/25 19:17:37;;;;;;;14.80;6.93;;;26.10;80.40;;;;;;10437075;28;20037;-63
2022/08/25 19:22:38;;;;;;;13.82;5.85;;;26.10;81.20;;;;;;10435762;28;20040;-63
2022/08/25 19:27:40;;;;;;;9.80;4.68;;;26.00;81.50;;;;;;10433845;28;20025;-62
2022/08/25 19:32:42;;;;;;;6.43;4.55;;;25.90;81.60;;;;;;10434967;28;20467;-62
2022/08/25 19:37:43;;;;;;;7.45;4.75;;;25.80;81.50;;;;;;10434927;28;20116;-64
2022/08/25 19:42:44;;;;;;;8.30;4.68;;;25.70;81.70;;;;;;10421425;28;20023;-62
2022/08/25 19:47:46;;;;;;;6.95;4.88;;;25.70;82.10;;;;;;10443034;28;20473;-63
2022/08/25 19:52:47;;;;;;;6.72;4.90;;;25.60;82.50;;;;;;10442996;28;20090;-62
2022/08/25 19:57:48;;;;;;;6.15;5.03;;;25.50;82.80;;;;;;10441855;28;20025;-63
2022/08/25 20:02:49;;;;;;;7.20;4.80;;;25.50;83.00;;;;;;10443728;28;20029;-61
2022/08/25 20:07:52;;;;;;;6.55;4.93;;;25.40;83.30;;;;;;10443888;28;20057;-62
2022/08/25 20:12:54;;;;;;;5.60;4.50;;;25.30;83.70;;;;;;10442294;28;20067;-62
2022/08/25 20:17:54;;;;;;;11.93;4.70;;;25.20;84.20;;;;;;10443219;28;20017;-61
2022/08/25 20:24:47;;;;;;;8.32;4.90;;;25.10;85.40;;;;;;10443071;28;20039;-62
2022/08/25 20:28:19;;;;;;;6.55;5.20;;;25.10;85.20;;;;;;10440619;28;20111;-62
2022/08/25 20:33:20;;;;;;;7.88;5.13;;;25.00;85.30;;;;;;10442543;28;20068;-62
2022/08/25 20:38:21;;;;;;;10.07;5.53;;;25.00;85.80;;;;;;10442337;28;20029;-62
2022/08/25 20:43:22;;;;;;;8.15;5.70;;;24.90;86.40;;;;;;10441105;28;20025;-62
2022/08/25 20:48:22;;;;;;;8.75;5.53;;;24.80;86.60;;;;;;10441169;28;20021;-62
2022/08/25 20:53:24;;;;;;;9.20;5.43;;;24.80;86.80;;;;;;10440625;28;20409;-62
2022/08/25 20:58:25;;;;;;;11.40;7.82;;;24.70;86.60;;;;;;10441009;28;20059;-62
2022/08/25 21:03:26;;;;;;;13.73;10.43;;;24.60;86.20;;;;;;10441176;28;20120;-62
2022/08/25 21:08:28;;;;;;;18.48;13.35;;;24.60;86.20;;;;;;10443863;28;20021;-62
2022/08/25 21:13:28;;;;;;;19.88;14.23;;;24.50;86.40;;;;;;10440782;28;20037;-63
2022/08/25 21:18:29;;;;;;;13.52;10.85;;;24.50;86.60;;;;;;10443273;28;20493;-63
2022/08/25 21:23:30;;;;;;;15.63;10.32;;;24.70;86.30;;;;;;10439551;28;20037;-63
2022/08/25 21:28:31;;;;;;;11.90;9.52;;;24.80;85.90;;;;;;10433030;28;20060;-63
2022/08/25 21:33:32;;;;;;;11.50;9.55;;;24.90;85.50;;;;;;10439269;28;20147;-63
2022/08/25 21:38:33;;;;;;;12.63;8.75;;;25.10;85.30;;;;;;10438787;28;20160;-64
2022/08/25 21:43:34;;;;;;;10.00;8.20;;;25.20;85.10;;;;;;10440056;28;20123;-63
2022/08/25 21:48:35;;;;;;;9.70;8.20;;;25.20;84.90;;;;;;10438574;28;20052;-63
2022/08/25 21:53:36;;;;;;;10.63;8.32;;;25.20;84.80;;;;;;10439119;28;20043;-63
2022/08/25 21:58:38;;;;;;;9.25;8.35;;;25.20;84.70;;;;;;10440001;28;20068;-61
2022/08/25 22:03:42;;;;;;;10.02;8.20;;;25.30;84.80;;;;;;10439131;28;20040;-64
2022/08/25 22:08:43;;;;;;;9.32;8.38;;;25.30;84.70;;;;;;10439218;28;20028;-63
2022/08/25 22:13:46;;;;;;;12.07;8.30;;;25.30;84.70;;;;;;10438603;28;20363;-63
2022/08/25 22:18:47;;;;;;;11.18;8.70;;;25.30;84.70;;;;;;10441593;28;20558;-64
2022/08/25 22:23:49;;;;;;;9.55;8.55;;;25.30;84.70;;;;;;10411095;28;20013;-63
2022/08/25 22:28:50;;;;;;;10.82;8.32;;;25.30;84.70;;;;;;10437379;28;20056;-62
2022/08/25 22:33:51;;;;;;;9.23;8.00;;;25.30;84.80;;;;;;10437599;28;20039;-62
2022/08/25 22:38:52;;;;;;;8.02;7.22;;;25.30;84.80;;;;;;10436463;28;20137;-63
2022/08/25 22:43:54;;;;;;;9.55;7.93;;;25.30;84.90;;;;;;10419184;28;20029;-62
2022/08/25 22:48:55;;;;;;;8.32;7.47;;;25.20;84.80;;;;;;10436963;28;20029;-61
2022/08/25 22:53:58;;;;;;;10.02;8.52;;;25.30;85.00;;;;;;10435947;28;20115;-63
2022/08/25 22:59:03;;;;;;;10.32;7.80;;;25.20;85.00;;;;;;10438054;28;20014;-63
2022/08/25 23:04:04;;;;;;;9.38;7.93;;;25.20;85.10;;;;;;10433168;28;20032;-63
2022/08/25 23:09:07;;;;;;;8.60;7.68;;;25.20;85.10;;;;;;10438119;28;20094;-62
2022/08/25 23:14:09;;;;;;;8.85;7.95;;;25.20;85.20;;;;;;10435927;28;20021;-63
2022/08/25 23:19:11;;;;;;;10.88;7.90;;;25.20;85.30;;;;;;10433439;28;20421;-64
2022/08/25 23:24:14;;;;;;;9.57;8.13;;;25.20;85.40;;;;;;10436064;28;20112;-65
2022/08/25 23:29:15;;;;;;;10.95;8.32;;;25.10;85.40;;;;;;10435791;28;20045;-64
2022/08/25 23:34:16;;;;;;;9.25;8.20;;;25.10;85.60;;;;;;10437737;28;20025;-62
2022/08/25 23:39:16;;;;;;;9.93;8.25;;;25.10;85.70;;;;;;10435457;28;20052;-63
2022/08/25 23:44:19;;;;;;;10.73;8.25;;;25.00;85.80;;;;;;10418171;28;20322;-63
2022/08/25 23:49:21;;;;;;;10.15;8.43;;;25.00;85.90;;;;;;10434647;28;20036;-64
2022/08/25 23:54:22;;;;;;;8.88;8.07;;;25.00;86.00;;;;;;10433024;28;20037;-63
2022/08/25 23:59:22;;;;;;;9.30;8.35;;;25.00;86.20;;;;;;10434558;28;20029;-64
